Eko 2 — SY9957 — position and weather

sailwx.info

Track history (hours):
 
Tides and Currents Weather Stations Pressure Air Temp Water Temp Dewpoint Dewpoint Depression Visibility Wind Speed Wind Dir Waves Ship Positions

Eko 2

Last reported at 2015-Sep-04 09:30 UTC. Time now 2015-Sep-04 10:31 UTC.
Position N 37°06' E 025°09'.

Length 89 m; draft 4.5 m.

Type: Ship (hazmat cat A). MMSI: 240827000.

Date/timePositionNaut miles runAvg speedWind from/ knotsBaromVisibWave heightAir tempDewpointWater temp
2015-Sep-04 09:30N 37°06' E 025°09'0 0.0
2015-Sep-04 08:24N 37°06' E 025°09'0 0.4
2015-Sep-04 07:33N 37°05' E 025°08'7 6.9
2015-Sep-04 06:33N 37°10' E 025°14'7 7.4
2015-Sep-04 05:33N 37°06' E 025°22'0 0.1
2015-Sep-04 04:33N 37°06' E 025°22'0 0.0
2015-Sep-04 03:33N 37°06' E 025°22'0 0.0
2015-Sep-04 02:33N 37°06' E 025°22'0 0.0
2015-Sep-04 01:33N 37°06' E 025°22'0 0.0
2015-Sep-04 00:33N 37°06' E 025°22'0 0.0
2015-Sep-03 23:33N 37°06' E 025°22'0 0.0
2015-Sep-03 22:33N 37°06' E 025°22'0 0.0
2015-Sep-03 21:33N 37°06' E 025°22'1 0.8
2015-Sep-03 20:33N 37°06' E 025°21'0 0.0
2015-Sep-03 19:33N 37°06' E 025°21'0 0.0
2015-Sep-03 18:30N 37°06' E 025°21'1 0.8
2015-Sep-03 17:33N 37°06' E 025°22'0 0.0
2015-Sep-03 16:33N 37°06' E 025°22'1 1.1
2015-Sep-03 15:33N 37°07' E 025°21'1 1.3
2015-Sep-03 14:33N 37°08' E 025°20'2 2.3
2015-Sep-03 13:33N 37°06' E 025°22'0 0.1
2015-Sep-03 12:33N 37°06' E 025°22'0 0.0
2015-Sep-03 11:33N 37°06' E 025°22'4 4.5
2015-Sep-03 10:33N 37°09' E 025°25'9 8.5
2015-Sep-03 09:33N 37°11' E 025°36'10 9.8
2015-Sep-03 08:31N 37°02' E 025°41'9 9.7
2015-Sep-03 07:33N 36°54' E 025°47'5 1.2
2015-Sep-03 03:33N 36°50' E 025°50'6 6.5
2015-Sep-03 02:33N 36°46' E 025°43'9 9.4
2015-Sep-03 01:33N 36°43' E 025°54'1010.3
2015-Sep-03 00:33N 36°42' E 026°07'1110.4
2015-Sep-02 23:30N 36°41' E 026°21'2410.4
2015-Sep-02 21:12N 36°39' E 026°50'15 1.7
2015-Sep-02 12:29N 36°37' E 027°08'17 7.3
2015-Sep-02 10:12N 36°48' E 026°53'6 9.6
2015-Sep-02 09:32N 36°54' E 026°52'10 9.5
2015-Sep-02 08:32N 37°03' E 026°50'4 0.2
2015-Sep-01 14:29N 37°08' E 026°51'10 8.3
2015-Sep-01 13:19N 37°08' E 026°39'7 9.5
2015-Sep-01 12:34N 37°10' E 026°30'10 9.5
2015-Sep-01 11:33N 37°12' E 026°18'14 9.8
2015-Sep-01 10:07N 37°15' E 026°01'7 9.7
2015-Sep-01 09:24N 37°16' E 025°53'8 9.8
2015-Sep-01 08:33N 37°18' E 025°42'10 9.9
2015-Sep-01 07:33N 37°20' E 025°30'10 9.9
2015-Sep-01 06:33N 37°23' E 025°18'5 5.4
2015-Sep-01 05:32N 37°28' E 025°19'0 0.0
2015-Sep-01 04:32N 37°28' E 025°19'0 0.0
2015-Sep-01 03:32N 37°28' E 025°19'0 0.0
2015-Sep-01 02:32N 37°28' E 025°19'0 0.0
2015-Sep-01 01:32N 37°28' E 025°19'0 0.0
2015-Sep-01 00:32N 37°28' E 025°19'0 0.0
2015-Aug-31 23:32N 37°28' E 025°19'0 0.0
2015-Aug-31 22:32N 37°28' E 025°19'0 0.2
2015-Aug-31 21:33N 37°28' E 025°19'8 8.3
2015-Aug-31 20:33N 37°29' E 025°09'10 9.8
2015-Aug-31 19:33N 37°31' E 024°57'9 9.5
2015-Aug-31 18:33N 37°32' E 024°45'46 9.2
2015-Aug-31 13:33N 37°38' E 023°47'8 8.5
2015-Aug-31 12:33N 37°44' E 023°40'10 9.8
2015-Aug-31 11:33N 37°54' E 023°36'8 8.2
2015-Aug-31 10:33N 38°01' E 023°32'1 0.5
2015-Aug-31 09:24N 38°02' E 023°32'0 0.0
2015-Aug-31 08:33N 38°02' E 023°32'0 0.0
2015-Aug-31 07:33N 38°02' E 023°32'0 0.0
2015-Aug-31 06:30N 38°02' E 023°32'0 0.0
2015-Aug-31 05:33N 38°02' E 023°32'0 0.0
2015-Aug-31 04:33N 38°02' E 023°32'0 0.0
2015-Aug-31 03:33N 38°02' E 023°32'0 0.0
2015-Aug-31 02:33N 38°02' E 023°32'0 0.0
2015-Aug-31 01:33N 38°02' E 023°32'0 0.0
2015-Aug-31 00:30N 38°02' E 023°32'0 0.0
2015-Aug-30 23:33N 38°02' E 023°32'0 0.0
2015-Aug-30 22:30N 38°02' E 023°32'0 0.0
2015-Aug-30 21:30N 38°02' E 023°32'0 0.0
2015-Aug-30 20:33N 38°02' E 023°32'0 0.0
2015-Aug-30 19:33N 38°02' E 023°32'0 0.0
2015-Aug-30 18:30N 38°02' E 023°32'0 0.0
2015-Aug-30 17:33N 38°02' E 023°32'0 0.0
2015-Aug-30 16:33N 38°02' E 023°32'3 2.5
2015-Aug-30 15:33N 38°02' E 023°35'0 0.2
2015-Aug-30 14:33N 38°02' E 023°36'0 0.0
2015-Aug-30 13:31N 38°02' E 023°36'0 0.0
2015-Aug-30 12:32N 38°02' E 023°36'0 0.0
2015-Aug-30 11:33N 38°02' E 023°36'0 0.0
2015-Aug-30 10:33N 38°02' E 023°36'0 0.0
2015-Aug-30 09:33N 38°02' E 023°36'0 0.0
2015-Aug-30 08:33N 38°02' E 023°36'1 0.6
2015-Aug-30 07:33N 38°02' E 023°35'5 5.1
2015-Aug-30 06:33N 37°57' E 023°36'2 2.2
2015-Aug-30 05:33N 37°55' E 023°37'1 0.7
2015-Aug-30 04:33N 37°54' E 023°36'4 3.6
2015-Aug-30 03:33N 37°52' E 023°39'10 9.8
2015-Aug-30 02:33N 37°43' E 023°44'89 3.7
2015-Aug-29 02:21N 36°34' E 024°54'8 9.1
2015-Aug-29 01:30N 36°30' E 025°03'10 9.0
2015-Aug-29 00:21N 36°25' E 025°14'7 8.9
2015-Aug-28 23:33N 36°23' E 025°22'2 2.4
2015-Aug-28 22:33N 36°24' E 025°25'0 0.1
2015-Aug-28 21:33N 36°23' E 025°25'1 0.7
2015-Aug-28 20:27N 36°23' E 025°26'0 0.0
2015-Aug-28 19:25N 36°23' E 025°26'0 0.0
2015-Aug-28 18:24N 36°23' E 025°26'0 0.0
2015-Aug-28 17:30N 36°23' E 025°26'0 0.0
2015-Aug-28 16:31N 36°23' E 025°26'0 0.0
2015-Aug-28 15:27N 36°23' E 025°26'0 0.0
2015-Aug-28 14:33N 36°23' E 025°26'0 0.0
2015-Aug-28 13:30N 36°23' E 025°26'0 0.0
2015-Aug-28 12:30N 36°23' E 025°26'0 0.0
2015-Aug-28 11:30N 36°23' E 025°26'0 0.0
2015-Aug-28 10:33N 36°23' E 025°26'0 0.0
2015-Aug-28 09:30N 36°23' E 025°26'0 0.0
2015-Aug-28 08:27N 36°23' E 025°26'0 0.0
2015-Aug-28 07:33N 36°23' E 025°26'0 0.0
2015-Aug-28 06:30N 36°23' E 025°26'0 0.0
2015-Aug-28 05:27N 36°23' E 025°26'0 0.0
2015-Aug-28 04:18N 36°23' E 025°26'0 0.3
2015-Aug-28 03:31N 36°23' E 025°26'2 1.5
2015-Aug-28 02:31N 36°25' E 025°25'0 0.0
2015-Aug-28 01:31N 36°25' E 025°25'0 0.0
2015-Aug-28 00:31N 36°25' E 025°25'0 0.1
2015-Aug-27 23:31N 36°25' E 025°25'0 0.0
2015-Aug-27 22:31N 36°25' E 025°25'0 0.0
2015-Aug-27 21:31N 36°25' E 025°25'0 0.0
2015-Aug-27 20:31N 36°25' E 025°25'5 5.2
2015-Aug-27 19:33N 36°22' E 025°20'10 9.9
2015-Aug-27 18:33N 36°18' E 025°32'1110.7
2015-Aug-27 17:33N 36°18' E 025°45'1110.4
2015-Aug-27 16:30N 36°19' E 025°58'1010.2
2015-Aug-27 15:33N 36°20' E 026°10'1010.1
2015-Aug-27 14:33N 36°22' E 026°23'1010.2
2015-Aug-27 13:33N 36°23' E 026°35'10 9.9
2015-Aug-27 12:33N 36°25' E 026°47'10 9.8
2015-Aug-27 11:33N 36°28' E 026°59'1010.1
2015-Aug-27 10:33N 36°30' E 027°11'1410.5
2015-Aug-27 09:13N 36°34' E 027°28'26 3.7
2015-Aug-27 02:09N 36°31' E 028°00'  
Track history (hours):
 
Tides and Currents Weather Stations Pressure Air Temp Water Temp Dewpoint Dewpoint Depression Visibility Wind Speed Wind Dir Waves Ship Positions

Eko 2

Last reported at 2015-Sep-04 09:30 UTC. Time now 2015-Sep-04 10:31 UTC.
Position N 37°06' E 025°09'.

Length 89 m; draft 4.5 m.

Type: Ship (hazmat cat A). MMSI: 240827000.

Date/timePositionNaut miles runAvg speedWind from/ knotsBaromVisibWave heightAir tempDewpointWater temp
2015-Sep-04 09:30N 37°06' E 025°09'0 0.0
2015-Sep-04 08:24N 37°06' E 025°09'0 0.4
2015-Sep-04 07:33N 37°05' E 025°08'7 6.9
2015-Sep-04 06:33N 37°10' E 025°14'7 7.4
2015-Sep-04 05:33N 37°06' E 025°22'0 0.1
2015-Sep-04 04:33N 37°06' E 025°22'0 0.0
2015-Sep-04 03:33N 37°06' E 025°22'0 0.0
2015-Sep-04 02:33N 37°06' E 025°22'0 0.0
2015-Sep-04 01:33N 37°06' E 025°22'0 0.0
2015-Sep-04 00:33N 37°06' E 025°22'0 0.0
2015-Sep-03 23:33N 37°06' E 025°22'0 0.0
2015-Sep-03 22:33N 37°06' E 025°22'0 0.0
2015-Sep-03 21:33N 37°06' E 025°22'1 0.8
2015-Sep-03 20:33N 37°06' E 025°21'0 0.0
2015-Sep-03 19:33N 37°06' E 025°21'0 0.0
2015-Sep-03 18:30N 37°06' E 025°21'1 0.8
2015-Sep-03 17:33N 37°06' E 025°22'0 0.0
2015-Sep-03 16:33N 37°06' E 025°22'1 1.1
2015-Sep-03 15:33N 37°07' E 025°21'1 1.3
2015-Sep-03 14:33N 37°08' E 025°20'2 2.3
2015-Sep-03 13:33N 37°06' E 025°22'0 0.1
2015-Sep-03 12:33N 37°06' E 025°22'0 0.0
2015-Sep-03 11:33N 37°06' E 025°22'4 4.5
2015-Sep-03 10:33N 37°09' E 025°25'9 8.5
2015-Sep-03 09:33N 37°11' E 025°36'10 9.8
2015-Sep-03 08:31N 37°02' E 025°41'9 9.7
2015-Sep-03 07:33N 36°54' E 025°47'5 1.2
2015-Sep-03 03:33N 36°50' E 025°50'6 6.5
2015-Sep-03 02:33N 36°46' E 025°43'9 9.4
2015-Sep-03 01:33N 36°43' E 025°54'1010.3
2015-Sep-03 00:33N 36°42' E 026°07'1110.4
2015-Sep-02 23:30N 36°41' E 026°21'2410.4
2015-Sep-02 21:12N 36°39' E 026°50'15 1.7
2015-Sep-02 12:29N 36°37' E 027°08'17 7.3
2015-Sep-02 10:12N 36°48' E 026°53'6 9.6
2015-Sep-02 09:32N 36°54' E 026°52'10 9.5
2015-Sep-02 08:32N 37°03' E 026°50'4 0.2
2015-Sep-01 14:29N 37°08' E 026°51'10 8.3
2015-Sep-01 13:19N 37°08' E 026°39'7 9.5
2015-Sep-01 12:34N 37°10' E 026°30'10 9.5
2015-Sep-01 11:33N 37°12' E 026°18'14 9.8
2015-Sep-01 10:07N 37°15' E 026°01'7 9.7
2015-Sep-01 09:24N 37°16' E 025°53'8 9.8
2015-Sep-01 08:33N 37°18' E 025°42'10 9.9
2015-Sep-01 07:33N 37°20' E 025°30'10 9.9
2015-Sep-01 06:33N 37°23' E 025°18'5 5.4
2015-Sep-01 05:32N 37°28' E 025°19'0 0.0
2015-Sep-01 04:32N 37°28' E 025°19'0 0.0
2015-Sep-01 03:32N 37°28' E 025°19'0 0.0
2015-Sep-01 02:32N 37°28' E 025°19'0 0.0
2015-Sep-01 01:32N 37°28' E 025°19'0 0.0
2015-Sep-01 00:32N 37°28' E 025°19'0 0.0
2015-Aug-31 23:32N 37°28' E 025°19'0 0.0
2015-Aug-31 22:32N 37°28' E 025°19'0 0.2
2015-Aug-31 21:33N 37°28' E 025°19'8 8.3
2015-Aug-31 20:33N 37°29' E 025°09'10 9.8
2015-Aug-31 19:33N 37°31' E 024°57'9 9.5
2015-Aug-31 18:33N 37°32' E 024°45'46 9.2
2015-Aug-31 13:33N 37°38' E 023°47'8 8.5
2015-Aug-31 12:33N 37°44' E 023°40'10 9.8
2015-Aug-31 11:33N 37°54' E 023°36'8 8.2
2015-Aug-31 10:33N 38°01' E 023°32'1 0.5
2015-Aug-31 09:24N 38°02' E 023°32'0 0.0
2015-Aug-31 08:33N 38°02' E 023°32'0 0.0
2015-Aug-31 07:33N 38°02' E 023°32'0 0.0
2015-Aug-31 06:30N 38°02' E 023°32'0 0.0
2015-Aug-31 05:33N 38°02' E 023°32'0 0.0
2015-Aug-31 04:33N 38°02' E 023°32'0 0.0
2015-Aug-31 03:33N 38°02' E 023°32'0 0.0
2015-Aug-31 02:33N 38°02' E 023°32'0 0.0
2015-Aug-31 01:33N 38°02' E 023°32'0 0.0
2015-Aug-31 00:30N 38°02' E 023°32'0 0.0
2015-Aug-30 23:33N 38°02' E 023°32'0 0.0
2015-Aug-30 22:30N 38°02' E 023°32'0 0.0
2015-Aug-30 21:30N 38°02' E 023°32'0 0.0
2015-Aug-30 20:33N 38°02' E 023°32'0 0.0
2015-Aug-30 19:33N 38°02' E 023°32'0 0.0
2015-Aug-30 18:30N 38°02' E 023°32'0 0.0
2015-Aug-30 17:33N 38°02' E 023°32'0 0.0
2015-Aug-30 16:33N 38°02' E 023°32'3 2.5
2015-Aug-30 15:33N 38°02' E 023°35'0 0.2
2015-Aug-30 14:33N 38°02' E 023°36'0 0.0
2015-Aug-30 13:31N 38°02' E 023°36'0 0.0
2015-Aug-30 12:32N 38°02' E 023°36'0 0.0
2015-Aug-30 11:33N 38°02' E 023°36'0 0.0
2015-Aug-30 10:33N 38°02' E 023°36'0 0.0
2015-Aug-30 09:33N 38°02' E 023°36'0 0.0
2015-Aug-30 08:33N 38°02' E 023°36'1 0.6
2015-Aug-30 07:33N 38°02' E 023°35'5 5.1
2015-Aug-30 06:33N 37°57' E 023°36'2 2.2
2015-Aug-30 05:33N 37°55' E 023°37'1 0.7
2015-Aug-30 04:33N 37°54' E 023°36'4 3.6
2015-Aug-30 03:33N 37°52' E 023°39'10 9.8
2015-Aug-30 02:33N 37°43' E 023°44'89 3.7
2015-Aug-29 02:21N 36°34' E 024°54'8 9.1
2015-Aug-29 01:30N 36°30' E 025°03'10 9.0
2015-Aug-29 00:21N 36°25' E 025°14'7 8.9
2015-Aug-28 23:33N 36°23' E 025°22'2 2.4
2015-Aug-28 22:33N 36°24' E 025°25'0 0.1
2015-Aug-28 21:33N 36°23' E 025°25'1 0.7
2015-Aug-28 20:27N 36°23' E 025°26'0 0.0
2015-Aug-28 19:25N 36°23' E 025°26'0 0.0
2015-Aug-28 18:24N 36°23' E 025°26'0 0.0
2015-Aug-28 17:30N 36°23' E 025°26'0 0.0
2015-Aug-28 16:31N 36°23' E 025°26'0 0.0
2015-Aug-28 15:27N 36°23' E 025°26'0 0.0
2015-Aug-28 14:33N 36°23' E 025°26'0 0.0
2015-Aug-28 13:30N 36°23' E 025°26'0 0.0
2015-Aug-28 12:30N 36°23' E 025°26'0 0.0
2015-Aug-28 11:30N 36°23' E 025°26'0 0.0
2015-Aug-28 10:33N 36°23' E 025°26'0 0.0
2015-Aug-28 09:30N 36°23' E 025°26'0 0.0
2015-Aug-28 08:27N 36°23' E 025°26'0 0.0
2015-Aug-28 07:33N 36°23' E 025°26'0 0.0
2015-Aug-28 06:30N 36°23' E 025°26'0 0.0
2015-Aug-28 05:27N 36°23' E 025°26'0 0.0
2015-Aug-28 04:18N 36°23' E 025°26'0 0.3
2015-Aug-28 03:31N 36°23' E 025°26'2 1.5
2015-Aug-28 02:31N 36°25' E 025°25'0 0.0
2015-Aug-28 01:31N 36°25' E 025°25'0 0.0
2015-Aug-28 00:31N 36°25' E 025°25'0 0.1
2015-Aug-27 23:31N 36°25' E 025°25'0 0.0
2015-Aug-27 22:31N 36°25' E 025°25'0 0.0
2015-Aug-27 21:31N 36°25' E 025°25'0 0.0
2015-Aug-27 20:31N 36°25' E 025°25'5 5.2
2015-Aug-27 19:33N 36°22' E 025°20'10 9.9
2015-Aug-27 18:33N 36°18' E 025°32'1110.7
2015-Aug-27 17:33N 36°18' E 025°45'1110.4
2015-Aug-27 16:30N 36°19' E 025°58'1010.2
2015-Aug-27 15:33N 36°20' E 026°10'1010.1
2015-Aug-27 14:33N 36°22' E 026°23'1010.2
2015-Aug-27 13:33N 36°23' E 026°35'10 9.9
2015-Aug-27 12:33N 36°25' E 026°47'10 9.8
2015-Aug-27 11:33N 36°28' E 026°59'1010.1
2015-Aug-27 10:33N 36°30' E 027°11'1410.5
2015-Aug-27 09:13N 36°34' E 027°28'26 3.7
2015-Aug-27 02:09N 36°31' E 028°00'  

Dump ship's entire track history